createdAt,value
2018-09-29T00:01:04.042Z,2.30
2018-09-29T00:03:32.222Z,3.13
2018-09-29T00:06:00.275Z,2.10
2018-09-29T00:08:28.356Z,2.07
2018-09-29T00:10:56.440Z,2.30
2018-09-29T00:13:24.477Z,2.20
2018-09-29T00:15:52.543Z,2.57
2018-09-29T00:18:20.631Z,2.33
2018-09-29T00:20:48.728Z,2.53
2018-09-29T00:23:17.305Z,2.70
2018-09-29T00:25:45.346Z,2.50
2018-09-29T00:28:13.415Z,2.83
2018-09-29T00:30:41.488Z,2.07
2018-09-29T00:33:09.548Z,2.50
2018-09-29T00:35:37.653Z,2.20
2018-09-29T00:38:05.708Z,2.43
2018-09-29T00:40:33.779Z,2.47
2018-09-29T00:43:01.860Z,2.73
2018-09-29T00:45:30.012Z,2.50
2018-09-29T00:47:58.060Z,3.27
2018-09-29T00:50:26.178Z,2.90
2018-09-29T00:52:54.302Z,2.60
2018-09-29T00:55:22.385Z,2.70
2018-09-29T00:57:50.484Z,2.90
2018-09-29T01:00:18.665Z,2.60
2018-09-29T01:02:46.721Z,3.07
2018-09-29T01:05:14.950Z,3.00
2018-09-29T01:07:43.061Z,2.57
2018-09-29T01:10:11.104Z,2.87
2018-09-29T01:12:39.150Z,3.43
2018-09-29T01:15:07.251Z,3.03
2018-09-29T01:17:35.316Z,2.97
2018-09-29T01:20:03.417Z,3.07
2018-09-29T01:22:31.500Z,2.90
2018-09-29T01:24:59.591Z,3.47
2018-09-29T01:27:27.699Z,2.90
2018-09-29T01:29:55.759Z,2.90
2018-09-29T01:32:23.806Z,4.97
2018-09-29T01:34:51.875Z,3.10
2018-09-29T01:37:19.943Z,3.00
2018-09-29T01:39:48.004Z,3.07
2018-09-29T01:42:16.079Z,3.20
2018-09-29T01:44:44.249Z,2.77
2018-09-29T01:47:12.363Z,3.47
2018-09-29T01:49:40.411Z,3.30
2018-09-29T01:52:08.488Z,3.20
2018-09-29T01:54:36.542Z,3.20
2018-09-29T01:57:04.625Z,3.43
2018-09-29T01:59:32.684Z,3.00
2018-09-29T02:02:00.773Z,3.20
2018-09-29T02:04:28.830Z,3.60
2018-09-29T02:06:56.968Z,3.03
2018-09-29T02:09:25.010Z,3.17
2018-09-29T02:11:53.058Z,3.10
2018-09-29T02:14:21.102Z,3.13
2018-09-29T02:16:49.184Z,3.30
2018-09-29T02:19:17.225Z,3.10
2018-09-29T02:21:45.296Z,2.93
2018-09-29T02:24:13.355Z,2.70
2018-09-29T02:26:41.412Z,2.93
2018-09-29T02:29:09.465Z,3.37
2018-09-29T02:31:37.539Z,2.70
2018-09-29T02:34:05.596Z,2.60
2018-09-29T02:36:33.678Z,2.93
2018-09-29T02:39:01.748Z,2.50
2018-09-29T02:41:29.844Z,2.60
2018-09-29T02:43:57.901Z,2.97
2018-09-29T02:46:26.033Z,2.87
2018-09-29T02:48:54.138Z,2.47
2018-09-29T02:51:22.224Z,2.67
2018-09-29T02:53:50.268Z,2.70
2018-09-29T02:56:18.338Z,2.57
2018-09-29T02:58:46.414Z,2.23
2018-09-29T03:01:14.508Z,2.30
2018-09-29T03:03:42.608Z,2.23
2018-09-29T03:06:10.651Z,2.90
2018-09-29T03:08:38.745Z,2.70
2018-09-29T03:11:06.848Z,2.50
2018-09-29T03:13:34.896Z,2.10
2018-09-29T03:16:02.959Z,2.23
2018-09-29T03:18:31.061Z,2.40
2018-09-29T03:20:59.134Z,2.73
2018-09-29T03:23:27.195Z,3.93
2018-09-29T03:25:55.265Z,2.90
2018-09-29T03:28:23.378Z,3.43
2018-09-29T03:30:51.456Z,3.00
2018-09-29T03:33:19.670Z,2.93
2018-09-29T03:35:47.759Z,3.10
2018-09-29T03:38:15.839Z,2.60
2018-09-29T03:40:43.927Z,2.53
2018-09-29T03:43:12.016Z,2.50
2018-09-29T03:45:40.109Z,2.50
2018-09-29T03:48:08.179Z,2.33
2018-09-29T03:50:36.250Z,2.60
2018-09-29T03:53:04.404Z,5.63
2018-09-29T03:55:32.499Z,4.83
2018-09-29T03:58:00.658Z,6.20
2018-09-29T04:00:28.727Z,6.57
2018-09-29T04:02:56.900Z,5.00
2018-09-29T04:05:24.988Z,4.60
2018-09-29T04:07:53.067Z,4.60
2018-09-29T04:10:21.487Z,3.57
2018-09-29T04:12:49.572Z,3.40
2018-09-29T04:15:17.639Z,3.30
2018-09-29T04:17:45.690Z,3.40
2018-09-29T04:20:13.752Z,3.27
2018-09-29T04:22:41.825Z,3.60
2018-09-29T04:25:09.861Z,2.90
2018-09-29T04:27:37.947Z,2.90
2018-09-29T04:30:06.196Z,3.40
2018-09-29T04:32:34.336Z,2.67
2018-09-29T04:35:02.408Z,3.07
2018-09-29T04:37:30.453Z,3.00
2018-09-29T04:39:58.491Z,3.00
2018-09-29T04:42:26.575Z,2.97
2018-09-29T04:44:54.676Z,3.23
2018-09-29T04:47:22.769Z,3.17
2018-09-29T04:49:50.812Z,2.90
2018-09-29T04:52:18.903Z,2.80
2018-09-29T04:54:46.948Z,2.63
2018-09-29T04:57:14.994Z,2.80
2018-09-29T04:59:43.112Z,3.17
2018-09-29T05:02:11.139Z,3.20
2018-09-29T05:04:39.244Z,3.03
2018-09-29T05:07:07.954Z,3.07
2018-09-29T05:09:36.020Z,2.90
2018-09-29T05:12:04.075Z,3.20
2018-09-29T05:14:32.136Z,3.13
2018-09-29T05:17:00.200Z,3.43
2018-09-29T05:19:28.295Z,3.20
2018-09-29T05:21:56.449Z,3.30
2018-09-29T05:24:24.520Z,2.83
2018-09-29T05:26:52.572Z,3.20
2018-09-29T05:29:20.649Z,3.23
2018-09-29T05:31:48.713Z,2.97
2018-09-29T05:34:16.809Z,3.23
2018-09-29T05:36:44.885Z,3.70
2018-09-29T05:39:12.953Z,2.90
2018-09-29T05:41:41.106Z,3.27
2018-09-29T05:44:09.584Z,2.73
2018-09-29T05:46:37.626Z,2.90
2018-09-29T05:49:05.692Z,3.20
2018-09-29T05:51:33.748Z,2.70
2018-09-29T05:54:01.857Z,3.13
2018-09-29T05:56:29.906Z,3.10
2018-09-29T05:58:57.975Z,2.70
2018-09-29T06:04:00.664Z,3.03
2018-09-29T06:06:30.630Z,3.03
2018-09-29T06:08:58.963Z,3.20
2018-09-29T06:11:27.087Z,3.10
2018-09-29T06:13:55.255Z,2.93
2018-09-29T06:16:23.529Z,2.90
2018-09-29T06:18:51.584Z,3.27
2018-09-29T06:21:19.637Z,3.37
2018-09-29T06:23:47.661Z,3.40
2018-09-29T06:26:15.816Z,3.37
2018-09-29T06:28:43.953Z,3.13
2018-09-29T06:31:12.039Z,2.80
2018-09-29T06:33:40.412Z,2.70
2018-09-29T06:36:15.485Z,2.90
2018-09-29T06:38:43.560Z,3.00
2018-09-29T06:41:11.638Z,2.77
2018-09-29T06:43:39.784Z,2.70
2018-09-29T06:46:07.889Z,2.83
2018-09-29T06:48:35.950Z,2.77
2018-09-29T06:51:04.160Z,3.03
2018-09-29T06:53:32.200Z,3.10
2018-09-29T06:56:00.292Z,2.50
2018-09-29T06:58:28.355Z,3.00
2018-09-29T07:00:56.449Z,3.10
2018-09-29T07:03:24.526Z,2.50
2018-09-29T07:05:52.632Z,3.03
2018-09-29T07:08:20.687Z,3.00
2018-09-29T07:10:48.768Z,2.80
2018-09-29T07:13:16.944Z,3.10
2018-09-29T07:15:45.033Z,3.10
2018-09-29T07:18:13.110Z,2.83
2018-09-29T07:20:41.215Z,3.27
2018-09-29T07:23:09.288Z,3.17
2018-09-29T07:25:37.368Z,3.10
2018-09-29T07:28:05.412Z,3.27
2018-09-29T07:30:33.497Z,3.10
2018-09-29T07:33:01.560Z,3.20
2018-09-29T07:35:29.643Z,3.27
2018-09-29T07:37:57.710Z,3.33
2018-09-29T07:40:25.810Z,3.60
2018-09-29T07:42:53.936Z,3.53
2018-09-29T07:45:22.016Z,3.90
2018-09-29T07:47:50.107Z,3.27
2018-09-29T07:50:18.194Z,3.17
2018-09-29T07:52:46.234Z,3.53
2018-09-29T07:55:14.331Z,3.07
2018-09-29T07:57:42.414Z,2.90
2018-09-29T08:00:10.478Z,3.20
2018-09-29T08:02:38.550Z,2.63
2018-09-29T08:05:06.845Z,3.40
2018-09-29T08:07:35.012Z,3.03
2018-09-29T08:10:03.149Z,3.00
2018-09-29T08:12:31.320Z,3.27
2018-09-29T08:14:59.333Z,3.20
2018-09-29T08:17:27.467Z,2.93
2018-09-29T08:19:55.541Z,2.70
2018-09-29T08:22:23.654Z,3.70
2018-09-29T08:24:51.738Z,3.40
2018-09-29T08:27:19.928Z,2.70
2018-09-29T08:29:48.028Z,2.90
2018-09-29T08:32:16.156Z,3.03
2018-09-29T08:34:44.180Z,3.43
2018-09-29T08:37:12.280Z,3.57
2018-09-29T08:39:40.331Z,3.50
2018-09-29T08:42:08.399Z,2.93
2018-09-29T08:44:36.502Z,2.57
2018-09-29T08:47:04.590Z,2.63
2018-09-29T08:49:32.667Z,2.40
2018-09-29T08:52:00.738Z,2.33
2018-09-29T08:54:28.841Z,2.33
2018-09-29T08:56:57.024Z,2.57
2018-09-29T08:59:25.119Z,2.53
2018-09-29T09:01:53.384Z,2.20
2018-09-29T09:04:21.477Z,2.83
2018-09-29T09:06:49.527Z,1.87
2018-09-29T09:09:17.605Z,2.00
2018-09-29T09:11:45.675Z,2.10
2018-09-29T09:14:13.736Z,2.23
2018-09-29T09:16:41.879Z,2.17
2018-09-29T09:19:09.956Z,2.00
2018-09-29T09:21:38.017Z,2.00
2018-09-29T09:24:06.246Z,2.00
2018-09-29T09:26:34.341Z,1.50
2018-09-29T09:29:02.541Z,1.80
2018-09-29T09:31:30.691Z,1.93
2018-09-29T09:33:58.776Z,1.67
2018-09-29T09:36:26.898Z,1.70
2018-09-29T09:38:55.012Z,1.80
2018-09-29T09:41:23.096Z,1.90
2018-09-29T09:43:51.168Z,1.63
2018-09-29T09:46:19.256Z,1.33
2018-09-29T09:48:47.352Z,1.50
2018-09-29T09:51:15.420Z,1.70
2018-09-29T09:53:44.340Z,1.50
2018-09-29T09:56:12.467Z,1.30
2018-09-29T09:58:40.544Z,1.47
2018-09-29T10:01:14.122Z,1.30
2018-09-29T10:03:42.191Z,1.30
2018-09-29T10:06:10.275Z,1.70
2018-09-29T10:08:41.255Z,1.33
2018-09-29T10:11:09.325Z,1.40
2018-09-29T10:13:37.430Z,1.20
2018-09-29T10:16:05.709Z,1.60
2018-09-29T10:18:33.820Z,1.50
2018-09-29T10:21:01.887Z,1.53
2018-09-29T10:23:29.975Z,1.40
2018-09-29T10:25:58.131Z,1.50
2018-09-29T10:28:26.231Z,1.40
2018-09-29T10:30:54.304Z,1.60
2018-09-29T10:33:22.381Z,1.30
2018-09-29T10:35:50.445Z,2.10
2018-09-29T10:38:18.558Z,1.47
2018-09-29T10:40:46.901Z,1.50
2018-09-29T10:43:15.325Z,1.73
2018-09-29T10:45:43.566Z,1.70
2018-09-29T10:48:11.690Z,1.57
2018-09-29T10:50:39.808Z,1.37
2018-09-29T10:53:07.913Z,1.50
2018-09-29T10:55:35.983Z,1.53
2018-09-29T10:58:04.139Z,2.03
2018-09-29T11:00:32.206Z,1.90
2018-09-29T11:03:00.284Z,1.90
2018-09-29T11:05:28.434Z,1.67
2018-09-29T11:07:56.534Z,2.00
2018-09-29T11:10:24.591Z,1.40
2018-09-29T11:12:52.705Z,1.50
2018-09-29T11:15:20.790Z,1.83
2018-09-29T11:17:48.948Z,2.00
2018-09-29T11:20:17.083Z,1.53
2018-09-29T11:22:45.159Z,1.67
2018-09-29T11:25:13.269Z,1.47
2018-09-29T11:27:41.460Z,1.70
2018-09-29T11:30:09.540Z,1.47
2018-09-29T11:32:37.747Z,1.60
2018-09-29T11:35:06.113Z,1.40
2018-09-29T11:37:34.254Z,1.40
2018-09-29T11:40:02.384Z,1.40
2018-09-29T11:42:30.447Z,1.40
2018-09-29T11:44:58.657Z,1.40
2018-09-29T11:47:26.730Z,1.67
2018-09-29T11:49:54.879Z,1.50
2018-09-29T11:52:22.936Z,1.53
2018-09-29T11:54:51.040Z,1.17
2018-09-29T11:57:19.328Z,1.73
2018-09-29T11:59:47.403Z,1.07
2018-09-29T12:02:15.562Z,1.63
2018-09-29T12:04:43.612Z,1.50
2018-09-29T12:07:11.785Z,1.60
2018-09-29T12:09:39.804Z,1.50
2018-09-29T12:12:07.932Z,1.40
2018-09-29T12:14:36.129Z,1.40
2018-09-29T12:17:04.195Z,1.07
2018-09-29T12:19:32.257Z,1.70
2018-09-29T12:22:00.415Z,2.53
2018-09-29T12:24:28.523Z,1.47
2018-09-29T12:26:56.623Z,1.20
2018-09-29T12:29:24.773Z,1.80
2018-09-29T12:31:52.833Z,1.50
2018-09-29T12:34:20.943Z,1.40
2018-09-29T12:36:49.254Z,1.30
2018-09-29T12:39:17.419Z,1.40
2018-09-29T12:41:45.476Z,1.20
2018-09-29T12:44:13.565Z,1.77
2018-09-29T12:46:41.639Z,1.23
2018-09-29T12:49:09.721Z,1.37
2018-09-29T12:51:37.885Z,1.70
2018-09-29T12:54:06.077Z,1.20
2018-09-29T12:56:34.154Z,1.10
2018-09-29T12:59:02.338Z,1.60
2018-09-29T13:01:30.428Z,1.60
2018-09-29T13:03:58.488Z,1.53
2018-09-29T13:06:26.596Z,1.40
2018-09-29T13:08:54.719Z,1.30
2018-09-29T13:11:22.934Z,1.47
2018-09-29T13:13:51.043Z,1.20
2018-09-29T13:16:19.137Z,1.50
2018-09-29T13:18:47.231Z,1.40
2018-09-29T13:21:15.326Z,1.50
2018-09-29T13:23:43.416Z,1.50
2018-09-29T13:26:11.504Z,1.40
2018-09-29T13:28:39.575Z,1.07
2018-09-29T13:31:07.832Z,1.37
2018-09-29T13:33:35.929Z,1.33
2018-09-29T13:36:04.001Z,1.20
2018-09-29T13:38:32.093Z,0.93
2018-09-29T13:41:00.264Z,1.33
2018-09-29T13:43:28.323Z,1.50
2018-09-29T13:45:56.453Z,1.20
2018-09-29T13:48:24.560Z,1.20
2018-09-29T13:50:52.700Z,1.30
2018-09-29T13:53:20.790Z,1.60
2018-09-29T13:55:48.877Z,1.20
2018-09-29T13:58:16.959Z,1.40
2018-09-29T14:00:45.090Z,1.40
2018-09-29T14:03:13.208Z,1.27
2018-09-29T14:05:41.330Z,1.47
2018-09-29T14:08:09.420Z,1.37
2018-09-29T14:10:37.529Z,1.60
2018-09-29T14:13:05.919Z,1.53
2018-09-29T14:15:34.037Z,1.30
2018-09-29T14:18:02.165Z,1.80
2018-09-29T14:20:30.252Z,1.57
2018-09-29T14:22:58.286Z,1.17
2018-09-29T14:25:26.399Z,1.20
2018-09-29T14:27:54.838Z,1.40
2018-09-29T14:30:22.994Z,1.40
2018-09-29T14:32:51.156Z,1.40
2018-09-29T14:35:19.277Z,1.87
2018-09-29T14:37:47.339Z,1.47
2018-09-29T14:40:15.452Z,1.40
2018-09-29T14:42:43.518Z,1.30
2018-09-29T14:45:11.693Z,1.50
2018-09-29T14:47:39.718Z,1.53
2018-09-29T14:50:08.005Z,1.53
2018-09-29T14:52:36.312Z,1.17
2018-09-29T14:55:04.684Z,1.20
2018-09-29T14:57:33.017Z,1.20
2018-09-29T15:00:01.130Z,1.20
2018-09-29T15:02:29.325Z,1.40
2018-09-29T15:04:57.793Z,1.50
2018-09-29T15:07:25.984Z,1.23
2018-09-29T15:09:54.304Z,2.67
2018-09-29T15:12:22.985Z,1.40
2018-09-29T15:14:51.084Z,1.70
2018-09-29T15:17:19.190Z,1.30
2018-09-29T15:19:47.297Z,1.47
2018-09-29T15:22:15.377Z,1.37
2018-09-29T15:24:43.540Z,1.43
2018-09-29T15:27:11.677Z,1.30
2018-09-29T15:29:39.776Z,1.57
2018-09-29T15:32:08.099Z,1.50
2018-09-29T15:34:36.171Z,1.00
2018-09-29T15:37:04.283Z,1.17
2018-09-29T15:39:32.360Z,2.60
2018-09-29T15:42:00.448Z,2.50
2018-09-29T15:44:28.514Z,1.90
2018-09-29T15:46:56.589Z,1.53
2018-09-29T15:49:24.646Z,1.63
2018-09-29T15:51:52.766Z,2.23
2018-09-29T15:54:20.839Z,1.97
2018-09-29T15:56:48.902Z,1.40
2018-09-29T15:59:17.204Z,1.50
2018-09-29T16:01:45.374Z,1.87
2018-09-29T16:04:13.719Z,1.23
2018-09-29T16:06:41.823Z,1.40
2018-09-29T16:09:10.681Z,2.27
2018-09-29T16:11:39.491Z,2.23
2018-09-29T16:14:07.584Z,4.20
2018-09-29T16:16:35.807Z,2.20
2018-09-29T16:19:03.927Z,1.80
2018-09-29T16:21:32.085Z,1.30
2018-09-29T16:24:00.156Z,1.57
2018-09-29T16:26:28.239Z,1.40
2018-09-29T16:28:56.485Z,1.70
2018-09-29T16:31:24.845Z,1.47
2018-09-29T16:33:53.237Z,1.37
2018-09-29T16:36:21.289Z,1.70
2018-09-29T16:38:49.338Z,1.50
2018-09-29T16:41:17.409Z,1.53
2018-09-29T16:43:45.554Z,1.50
2018-09-29T16:46:13.624Z,1.70
2018-09-29T16:48:41.788Z,1.70
2018-09-29T16:51:09.929Z,2.43
2018-09-29T16:53:38.028Z,1.97
2018-09-29T16:56:06.232Z,1.90
2018-09-29T16:58:34.345Z,1.87
2018-09-29T17:01:02.435Z,2.10
2018-09-29T17:03:30.621Z,2.20
2018-09-29T17:05:58.640Z,2.33
2018-09-29T17:08:26.725Z,2.93
2018-09-29T17:10:54.796Z,2.60
2018-09-29T17:13:22.905Z,2.37
2018-09-29T17:15:51.098Z,2.33
2018-09-29T17:18:19.286Z,2.57
2018-09-29T17:20:47.366Z,2.40
2018-09-29T17:23:15.425Z,2.40
2018-09-29T17:25:43.498Z,2.47
2018-09-29T17:28:11.586Z,2.97
2018-09-29T17:30:39.652Z,2.70
2018-09-29T17:33:07.817Z,3.00
2018-09-29T17:35:35.909Z,3.30
2018-09-29T17:38:04.028Z,3.13
2018-09-29T17:40:32.097Z,3.17
2018-09-29T17:43:00.213Z,3.23
2018-09-29T17:45:28.472Z,3.43
2018-09-29T17:47:56.564Z,3.17
2018-09-29T17:50:24.658Z,4.30
2018-09-29T17:52:53.204Z,28.80
2018-09-29T17:55:21.249Z,10.80
2018-09-29T17:57:49.367Z,16.73
2018-09-29T18:00:17.491Z,5.13
2018-09-29T18:02:45.645Z,6.50
2018-09-29T18:05:13.819Z,6.47
2018-09-29T18:07:41.944Z,6.03
2018-09-29T18:10:10.061Z,8.30
2018-09-29T18:12:38.389Z,8.43
2018-09-29T18:15:06.480Z,9.47
2018-09-29T18:17:34.630Z,9.53
2018-09-29T18:20:02.834Z,8.67
2018-09-29T18:22:31.022Z,8.70
2018-09-29T18:24:59.126Z,9.37
2018-09-29T18:27:27.256Z,9.87
2018-09-29T18:29:55.368Z,9.70
2018-09-29T18:32:23.458Z,11.47
2018-09-29T18:34:51.552Z,13.20
2018-09-29T18:37:19.708Z,12.90
2018-09-29T18:39:47.798Z,11.67
2018-09-29T18:42:15.880Z,9.13
2018-09-29T18:44:44.057Z,9.23
2018-09-29T18:47:12.241Z,6.93
2018-09-29T18:49:40.406Z,6.70
2018-09-29T18:52:08.801Z,7.27
2018-09-29T18:54:36.956Z,7.30
2018-09-29T18:57:05.107Z,7.63
2018-09-29T18:59:33.207Z,7.03
2018-09-29T19:02:01.343Z,8.40
2018-09-29T19:04:29.416Z,7.73
2018-09-29T19:06:57.505Z,7.77
2018-09-29T19:09:25.620Z,10.13
2018-09-29T19:11:53.781Z,14.03
2018-09-29T19:14:21.890Z,13.93
2018-09-29T19:16:49.997Z,11.63
2018-09-29T19:19:18.215Z,11.67
2018-09-29T19:21:46.340Z,11.07
2018-09-29T19:24:14.461Z,10.77
2018-09-29T19:26:42.519Z,11.87
2018-09-29T19:29:10.642Z,12.67
2018-09-29T19:31:38.689Z,13.30
2018-09-29T19:34:06.841Z,13.80
2018-09-29T19:36:34.920Z,10.97
2018-09-29T19:39:03.698Z,13.17
2018-09-29T19:41:31.774Z,15.03
2018-09-29T19:43:59.915Z,14.57
2018-09-29T19:46:28.102Z,14.13
2018-09-29T19:48:56.292Z,11.53
2018-09-29T19:51:24.459Z,13.20
2018-09-29T19:53:52.563Z,13.17
2018-09-29T19:56:20.696Z,12.37
2018-09-29T19:58:48.799Z,11.43
2018-09-29T20:01:16.904Z,11.03
2018-09-29T20:03:45.041Z,12.33
2018-09-29T20:06:13.175Z,12.20
2018-09-29T20:08:41.264Z,12.47
2018-09-29T20:11:09.375Z,12.10
2018-09-29T20:13:37.480Z,12.70
2018-09-29T20:16:05.761Z,12.57
2018-09-29T20:18:33.887Z,13.17
2018-09-29T20:21:02.034Z,13.17
2018-09-29T20:23:30.193Z,12.93
2018-09-29T20:25:58.300Z,12.57
2018-09-29T20:28:26.376Z,14.13
2018-09-29T20:30:54.481Z,15.10
2018-09-29T20:33:22.568Z,14.10
2018-09-29T20:35:50.712Z,15.93
2018-09-29T20:38:18.766Z,14.80
2018-09-29T20:40:46.882Z,12.93
2018-09-29T20:43:15.013Z,14.50
2018-09-29T20:45:43.100Z,13.50
2018-09-29T20:48:11.182Z,11.17
2018-09-29T20:50:39.295Z,12.23
2018-09-29T20:53:07.388Z,13.27
2018-09-29T20:55:35.470Z,13.17
2018-09-29T20:58:03.588Z,12.40
2018-09-29T21:00:31.697Z,12.73
2018-09-29T21:02:59.841Z,12.40
2018-09-29T21:05:27.964Z,12.17
2018-09-29T21:07:56.034Z,11.90
2018-09-29T21:10:24.131Z,12.37
2018-09-29T21:12:52.294Z,11.33
2018-09-29T21:15:20.316Z,12.73
2018-09-29T21:17:48.447Z,13.33
2018-09-29T21:20:16.528Z,13.40
2018-09-29T21:22:44.653Z,13.23
2018-09-29T21:25:12.739Z,12.53
2018-09-29T21:27:40.844Z,12.07
2018-09-29T21:30:08.935Z,11.83
2018-09-29T21:32:36.984Z,11.20
2018-09-29T21:35:05.068Z,11.70
2018-09-29T21:37:33.182Z,11.63
2018-09-29T21:40:01.374Z,11.40
2018-09-29T21:42:29.619Z,12.30
2018-09-29T21:44:57.628Z,11.63
2018-09-29T21:47:25.708Z,11.77
2018-09-29T21:49:53.797Z,10.90
2018-09-29T21:52:21.893Z,11.17
2018-09-29T21:54:49.945Z,10.50
2018-09-29T21:57:18.035Z,10.17
2018-09-29T21:59:46.060Z,10.83
2018-09-29T22:02:14.131Z,10.27
2018-09-29T22:04:42.278Z,10.27
2018-09-29T22:07:10.362Z,9.80
2018-09-29T22:09:38.673Z,8.93
2018-09-29T22:12:07.129Z,9.47
2018-09-29T22:14:35.309Z,8.80
2018-09-29T22:17:03.578Z,10.60
2018-09-29T22:19:31.715Z,10.67
2018-09-29T22:22:00.017Z,11.10
2018-09-29T22:24:28.341Z,9.83
2018-09-29T22:26:56.724Z,10.13
2018-09-29T22:31:59.630Z,10.23
2018-09-29T22:34:27.909Z,9.07
2018-09-29T22:36:56.184Z,8.80
2018-09-29T22:39:24.593Z,9.20
2018-09-29T22:41:52.976Z,9.77
2018-09-29T22:44:21.219Z,9.83
2018-09-29T22:46:49.487Z,8.77
2018-09-29T22:49:17.816Z,8.83
2018-09-29T22:51:45.998Z,8.67
2018-09-29T22:54:14.198Z,8.43
2018-09-29T22:56:42.513Z,8.23
2018-09-29T22:59:10.729Z,7.80
2018-09-29T23:01:38.869Z,7.97
2018-09-29T23:04:07.145Z,7.53
2018-09-29T23:06:35.309Z,7.53
2018-09-29T23:09:03.901Z,6.40
2018-09-29T23:11:32.216Z,8.03
2018-09-29T23:14:00.527Z,7.10
2018-09-29T23:16:28.640Z,6.67
2018-09-29T23:18:56.743Z,6.90
2018-09-29T23:21:24.869Z,6.60
2018-09-29T23:23:52.981Z,6.47
2018-09-29T23:26:21.084Z,7.27
2018-09-29T23:28:49.173Z,7.20
2018-09-29T23:31:17.208Z,6.70
2018-09-29T23:33:45.448Z,6.40
2018-09-29T23:36:13.659Z,6.10
2018-09-29T23:38:41.812Z,5.83
2018-09-29T23:41:09.903Z,5.40
2018-09-29T23:43:38.310Z,5.50
2018-09-29T23:46:06.487Z,5.40
2018-09-29T23:48:34.539Z,5.53
2018-09-29T23:51:02.684Z,4.40
2018-09-29T23:53:30.905Z,4.80
2018-09-29T23:55:59.092Z,4.50
2018-09-29T23:58:27.805Z,4.77
